Time;durP1;ratioP1;P1;durP2;ratioP2;P2;SDS_P1;SDS_P2;PMS_P1;PMS_P2;Temp;Humidity;BMP_temperature;BMP_pressure;BME280_temperature;BME280_humidity;BME280_pressure;Samples;Min_cycle;Max_cycle;Signal;HPM_P1;HPM_P2
2021/12/28 00:00:43;;;;;;;12.50;8.23;;;;;;;5.90;79.64;94154.38;5133527;27;20538;-72
2021/12/28 00:03:09;;;;;;;15.50;10.48;;;;;;;5.79;79.05;94162.09;5117432;27;20042;-72
2021/12/28 00:05:34;;;;;;;32.83;20.92;;;;;;;5.60;80.54;94160.09;5129968;27;20027;-71
2021/12/28 00:08:00;;;;;;;26.55;18.75;;;;;;;5.76;79.58;94167.47;5125783;27;20039;-72
2021/12/28 00:10:25;;;;;;;28.23;18.10;;;;;;;5.36;81.74;94160.94;5112245;27;20031;-72
2021/12/28 00:12:51;;;;;;;22.15;15.18;;;;;;;5.56;80.98;94172.34;5101973;28;20039;-73
2021/12/28 00:17:59;;;;;;;20.75;12.68;;;;;;;5.60;79.48;94147.19;5131340;27;20051;-72
2021/12/28 00:20:26;;;;;;;16.38;12.02;;;;;;;5.73;79.23;94176.25;5114552;27;20026;-72
2021/12/28 00:22:52;;;;;;;17.80;12.38;;;;;;;5.77;79.28;94175.13;5129596;27;20038;-72
2021/12/28 00:25:17;;;;;;;18.52;12.73;;;;;;;5.71;78.86;94160.13;5094404;28;20032;-72
2021/12/28 00:27:43;;;;;;;19.00;12.52;;;;;;;5.93;79.23;94181.69;5112252;28;20046;-72
2021/12/28 00:30:08;;;;;;;19.27;12.20;;;;;;;5.89;79.22;94180.28;5123316;27;20390;-71
2021/12/28 00:32:34;;;;;;;17.42;12.48;;;;;;;5.82;78.97;94190.22;5132643;27;20019;-71
2021/12/28 00:34:59;;;;;;;17.25;12.25;;;;;;;5.76;78.96;94188.09;5116851;27;20035;-71
2021/12/28 00:37:25;;;;;;;19.73;13.23;;;;;;;5.75;79.98;94171.81;5127081;27;20454;-72
2021/12/28 00:39:50;;;;;;;20.80;14.38;;;;;;;5.38;81.50;94173.72;5131802;27;20065;-72
2021/12/28 00:42:16;;;;;;;17.73;13.65;;;;;;;5.44;81.72;94172.44;5115612;27;20015;-72
2021/12/28 00:44:41;;;;;;;17.58;14.20;;;;;;;5.53;81.32;94171.75;5115674;27;20422;-71
2021/12/28 00:47:07;;;;;;;18.00;12.73;;;;;;;5.62;80.92;94171.06;5132540;27;20027;-71
2021/12/28 00:49:32;;;;;;;16.60;12.27;;;;;;;5.74;80.58;94162.47;5130952;27;20042;-72
2021/12/28 00:51:58;;;;;;;17.60;11.70;;;;;;;5.74;81.05;94159.88;5133725;27;20035;-71
2021/12/28 00:54:23;;;;;;;16.85;11.68;;;;;;;5.78;80.28;94176.75;5132424;27;20035;-72
2021/12/28 00:56:49;;;;;;;16.00;10.63;;;;;;;5.31;80.24;94157.03;5130178;27;20023;-72
2021/12/28 00:59:14;;;;;;;25.05;17.13;;;;;;;5.56;81.51;94167.19;5094874;28;20032;-72
2021/12/28 01:01:40;;;;;;;22.48;13.32;;;;;;;5.72;81.45;94176.38;5092073;28;20043;-71
2021/12/28 01:04:05;;;;;;;16.45;11.40;;;;;;;5.70;81.41;94163.59;5113091;28;20058;-72
2021/12/28 01:06:30;;;;;;;13.65;9.23;;;;;;;5.75;81.32;94179.56;5100585;28;20051;-72
2021/12/28 01:08:56;;;;;;;13.60;8.57;;;;;;;5.74;80.61;94175.34;5111463;28;20077;-72
2021/12/28 01:11:21;;;;;;;13.18;8.88;;;;;;;5.79;80.24;94177.56;5111576;28;20023;-72
2021/12/28 01:13:47;;;;;;;12.65;8.70;;;;;;;5.82;80.26;94167.03;5111533;28;20039;-71
2021/12/28 01:16:13;;;;;;;10.23;6.80;;;;;;;5.70;80.51;94144.75;5111327;28;20019;-72
2021/12/28 01:18:40;;;;;;;12.48;7.70;;;;;;;5.95;81.06;94170.38;5112771;28;20039;-72
2021/12/28 01:21:05;;;;;;;16.27;9.85;;;;;;;5.86;81.04;94157.31;5103592;28;20028;-72
2021/12/28 01:23:31;;;;;;;9.48;7.32;;;;;;;5.93;80.71;94177.38;5077372;28;20036;-72
2021/12/28 01:25:56;;;;;;;13.80;8.95;;;;;;;5.90;80.57;94177.59;5112494;28;20027;-72
2021/12/28 01:28:22;;;;;;;15.20;9.40;;;;;;;5.98;80.57;94174.47;5077739;27;20424;-73
2021/12/28 01:30:47;;;;;;;14.48;8.73;;;;;;;6.00;80.98;94175.19;5112599;27;20509;-72
2021/12/28 01:33:13;;;;;;;11.27;7.10;;;;;;;6.07;80.98;94175.53;5111090;28;20032;-71
2021/12/28 01:35:38;;;;;;;9.20;6.30;;;;;;;6.13;80.66;94163.03;5111100;28;20027;-72
2021/12/28 01:38:03;;;;;;;9.10;6.82;;;;;;;6.14;80.66;94162.06;5112214;28;20039;-72
2021/12/28 01:40:34;;;;;;;9.23;6.40;;;;;;;6.21;80.70;94178.75;5121978;27;20109;-72
2021/12/28 01:43:06;;;;;;;10.83;6.60;;;;;;;6.21;80.73;94171.00;5097765;27;20044;-72
2021/12/28 01:45:44;;;;;;;7.15;5.18;;;;;;;6.30;80.07;94169.47;5132608;27;20052;-72
2021/12/28 01:48:12;;;;;;;7.50;5.20;;;;;;;6.21;80.75;94163.25;5129064;27;20416;-71
2021/12/28 01:50:37;;;;;;;8.15;5.47;;;;;;;6.11;81.44;94171.81;5111579;28;20027;-72
2021/12/28 01:53:04;;;;;;;9.55;5.75;;;;;;;6.09;80.99;94168.50;5111608;27;20081;-72
2021/12/28 01:55:30;;;;;;;8.35;5.78;;;;;;;5.76;82.06;94168.28;5093841;28;20557;-71
2021/12/28 01:57:55;;;;;;;11.82;7.47;;;;;;;5.91;81.62;94175.84;5110640;28;20027;-72
2021/12/28 02:00:22;;;;;;;11.27;8.07;;;;;;;5.93;81.09;94172.22;5094694;28;20035;-71
2021/12/28 02:02:48;;;;;;;22.70;17.13;;;;;;;5.92;81.42;94167.16;5111840;28;20035;-72
2021/12/28 02:05:13;;;;;;;22.40;16.75;;;;;;;5.72;82.38;94169.47;5093443;28;20473;-71
2021/12/28 02:07:39;;;;;;;19.70;14.70;;;;;;;5.83;82.02;94154.03;5110429;28;20035;-72
2021/12/28 02:10:05;;;;;;;13.65;10.65;;;;;;;6.00;81.70;94167.44;5093584;28;20046;-72
2021/12/28 02:12:30;;;;;;;8.55;7.18;;;;;;;6.04;81.11;94163.69;5110386;28;20035;-73
2021/12/28 02:14:56;;;;;;;9.10;6.00;;;;;;;6.06;81.23;94169.56;5110461;28;20036;-72
2021/12/28 02:17:22;;;;;;;9.63;7.65;;;;;;;6.02;80.66;94163.00;5110359;28;20027;-72
2021/12/28 02:19:47;;;;;;;11.73;7.35;;;;;;;6.04;80.08;94161.97;5118727;27;20031;-72
2021/12/28 02:22:13;;;;;;;10.63;7.88;;;;;;;6.16;80.39;94161.97;5113701;27;20480;-71
2021/12/28 02:24:38;;;;;;;10.52;7.93;;;;;;;6.05;80.69;94155.03;5132432;27;20035;-72
2021/12/28 02:27:04;;;;;;;11.20;8.57;;;;;;;6.06;80.70;94142.97;5130747;27;20477;-72
2021/12/28 02:29:29;;;;;;;12.80;7.97;;;;;;;5.98;80.44;94141.78;5128697;27;20103;-72
2021/12/28 02:31:57;;;;;;;11.25;7.43;;;;;;;6.09;80.14;94153.84;5130698;27;20030;-72
2021/12/28 02:34:24;;;;;;;8.15;6.13;;;;;;;6.04;79.90;94156.81;5114074;28;20027;-72
2021/12/28 02:36:49;;;;;;;14.43;11.75;;;;;;;6.04;80.15;94146.50;5113498;27;20019;-72
2021/12/28 02:39:15;;;;;;;15.45;12.55;;;;;;;5.68;81.91;94150.00;5107482;28;20043;-71
2021/12/28 02:41:40;;;;;;;18.00;13.43;;;;;;;5.52;82.81;94146.94;5110132;28;20072;-71
2021/12/28 02:44:06;;;;;;;23.95;17.08;;;;;;;5.35;82.93;94149.00;5110081;28;20032;-72
2021/12/28 02:46:31;;;;;;;14.60;12.07;;;;;;;5.47;82.49;94149.03;5076171;28;20489;-72
2021/12/28 02:48:57;;;;;;;14.27;10.70;;;;;;;5.60;82.17;94155.75;5106318;28;20038;-72
2021/12/28 02:51:22;;;;;;;10.45;8.25;;;;;;;5.62;81.94;94147.88;5113025;28;20382;-71
2021/12/28 02:53:48;;;;;;;13.73;9.80;;;;;;;5.44;82.68;94155.22;5130495;28;20035;-72
2021/12/28 02:56:14;;;;;;;9.60;7.35;;;;;;;5.59;82.05;94158.41;5130458;28;20442;-72
2021/12/28 02:58:41;;;;;;;12.63;9.00;;;;;;;5.57;81.52;94161.13;5131682;27;20466;-71
2021/12/28 03:01:20;;;;;;;12.52;9.88;;;;;;;5.44;82.19;94172.44;5117470;27;20023;-71
2021/12/28 03:03:48;;;;;;;17.23;12.07;;;;;;;5.51;82.28;94168.47;5114227;28;20028;-71
2021/12/28 03:06:15;;;;;;;20.00;13.90;;;;;;;5.54;82.22;94171.66;5115210;28;20031;-72
2021/12/28 03:08:43;;;;;;;22.13;17.52;;;;;;;5.63;82.28;94169.31;5107102;27;20127;-71
2021/12/28 03:11:09;;;;;;;23.45;17.75;;;;;;;5.71;82.47;94165.25;5101950;28;20032;-71
2021/12/28 03:13:37;;;;;;;24.10;18.50;;;;;;;5.73;82.30;94175.44;5096909;28;20504;-71
2021/12/28 03:16:03;;;;;;;21.50;15.77;;;;;;;5.78;82.04;94181.91;5096977;28;20034;-71
2021/12/28 03:18:28;;;;;;;25.58;18.15;;;;;;;5.60;82.81;94162.66;5116868;27;20023;-71
2021/12/28 03:20:54;;;;;;;18.95;14.70;;;;;;;5.60;83.66;94163.47;5132333;27;20526;-71
2021/12/28 03:23:21;;;;;;;18.77;13.75;;;;;;;5.68;83.35;94173.19;5134375;27;20405;-71
2021/12/28 03:25:46;;;;;;;22.08;15.68;;;;;;;5.56;82.68;94151.72;5134113;27;20027;-71
2021/12/28 03:28:22;;;;;;;20.27;15.98;;;;;;;5.73;82.22;94171.09;5133261;27;20519;-72
2021/12/28 03:30:48;;;;;;;21.35;17.23;;;;;;;5.85;82.03;94176.28;5097131;28;20051;-72
2021/12/28 03:33:13;;;;;;;19.85;16.38;;;;;;;5.89;81.54;94182.88;5114840;27;20093;-71
2021/12/28 03:35:39;;;;;;;17.98;14.77;;;;;;;5.67;81.44;94166.41;5113827;27;20028;-72
2021/12/28 03:38:04;;;;;;;35.30;27.48;;;;;;;5.88;81.48;94171.75;5096203;27;20050;-72
2021/12/28 03:40:30;;;;;;;34.72;27.85;;;;;;;5.90;81.57;94159.53;5096482;28;20080;-71
2021/12/28 03:42:55;;;;;;;37.42;27.38;;;;;;;5.63;82.64;94161.59;5122839;27;20034;-71
2021/12/28 03:45:20;;;;;;;33.72;26.75;;;;;;;5.72;82.05;94169.47;5134022;27;20023;-71
2021/12/28 03:47:46;;;;;;;31.17;25.40;;;;;;;5.77;82.17;94169.16;5123393;27;20093;-71
2021/12/28 03:50:12;;;;;;;29.38;23.38;;;;;;;5.79;82.22;94169.81;5110942;28;20034;-71
2021/12/28 03:52:38;;;;;;;23.35;16.98;;;;;;;5.78;82.30;94173.34;5113074;28;20061;-71
2021/12/28 03:55:04;;;;;;;19.38;14.75;;;;;;;5.82;82.26;94167.03;5079458;28;20035;-72
2021/12/28 03:57:30;;;;;;;15.77;11.70;;;;;;;5.85;81.91;94165.97;5114192;27;20461;-72
2021/12/28 03:59:55;;;;;;;15.30;11.10;;;;;;;5.90;82.70;94163.88;5094470;28;20035;-71
2021/12/28 04:02:21;;;;;;;15.70;11.32;;;;;;;5.94;82.55;94165.34;5113920;28;20026;-71
2021/12/28 04:04:46;;;;;;;12.90;10.85;;;;;;;5.94;82.40;94167.91;5127383;27;20042;-72
2021/12/28 04:07:18;;;;;;;18.13;14.63;;;;;;;5.90;82.12;94163.88;5134481;27;20034;-71
2021/12/28 04:12:18;;;;;;;19.58;16.23;;;;;;;5.70;82.32;94162.78;5130822;27;20557;-72
2021/12/28 04:14:43;;;;;;;17.67;14.23;;;;;;;5.73;82.57;94158.22;5132482;27;20027;-72
2021/12/28 04:17:09;;;;;;;17.60;14.00;;;;;;;5.78;82.25;94163.03;5132907;27;20404;-72
2021/12/28 04:19:34;;;;;;;17.55;15.52;;;;;;;5.75;81.96;94166.66;5134720;27;20183;-72
2021/12/28 04:22:00;;;;;;;19.05;13.77;;;;;;;5.68;81.33;94160.31;5116001;27;20020;-72
2021/12/28 04:24:25;;;;;;;16.30;11.98;;;;;;;5.58;81.49;94149.06;5113803;27;20031;-71
2021/12/28 04:26:50;;;;;;;18.88;13.80;;;;;;;5.74;80.72;94177.91;5115762;27;20035;-71
2021/12/28 04:29:16;;;;;;;30.95;23.85;;;;;;;5.55;81.08;94159.59;5132749;27;20050;-72
2021/12/28 04:31:41;;;;;;;25.95;20.63;;;;;;;5.66;81.14;94180.25;5134431;27;20027;-71
2021/12/28 04:34:07;;;;;;;20.08;14.88;;;;;;;5.78;81.03;94178.50;5099367;28;20040;-71
2021/12/28 04:36:32;;;;;;;20.77;14.68;;;;;;;5.71;80.88;94174.72;5129416;27;20053;-71
2021/12/28 04:38:58;;;;;;;25.35;20.58;;;;;;;4.98;81.61;94160.28;5131358;27;20691;-72
2021/12/28 04:41:23;;;;;;;24.05;18.70;;;;;;;5.18;81.47;94171.72;5132768;27;20031;-71
2021/12/28 04:43:49;;;;;;;17.35;13.43;;;;;;;5.26;81.20;94175.38;5114986;27;20027;-71
2021/12/28 04:46:14;;;;;;;16.92;11.77;;;;;;;5.29;80.92;94174.34;5132871;27;20053;-72
2021/12/28 04:48:40;;;;;;;14.10;9.23;;;;;;;5.33;80.40;94180.94;5115444;27;20046;-71
2021/12/28 04:51:06;;;;;;;13.95;9.65;;;;;;;5.22;80.06;94173.97;5132422;27;20446;-71
2021/12/28 04:53:31;;;;;;;11.18;9.60;;;;;;;5.31;79.70;94167.34;5131141;27;20448;-71
2021/12/28 04:55:57;;;;;;;12.18;9.52;;;;;;;5.26;79.04;94182.31;5115203;27;20027;-71
2021/12/28 04:58:22;;;;;;;11.55;8.85;;;;;;;5.21;78.24;94186.94;5115143;27;20043;-72
2021/12/28 05:00:49;;;;;;;12.00;9.35;;;;;;;5.10;78.91;94182.59;5130370;27;20030;-71
2021/12/28 05:03:14;;;;;;;14.02;11.55;;;;;;;5.22;78.53;94188.63;5132245;27;20394;-71
2021/12/28 05:05:43;;;;;;;14.85;11.68;;;;;;;5.24;79.67;94192.72;5132190;27;20029;-73
2021/12/28 05:08:08;;;;;;;14.40;10.90;;;;;;;5.15;79.66;94186.50;5130220;27;20477;-71
2021/12/28 05:10:34;;;;;;;12.00;8.88;;;;;;;5.06;78.98;94188.88;5132129;27;20042;-71
2021/12/28 05:13:00;;;;;;;12.25;8.85;;;;;;;5.00;78.86;94189.31;5114785;27;20484;-71
2021/12/28 05:15:25;;;;;;;9.20;7.00;;;;;;;5.06;79.14;94189.69;5132050;27;20030;-71
2021/12/28 05:17:50;;;;;;;9.50;7.20;;;;;;;5.06;79.87;94188.88;5131894;27;20035;-71
2021/12/28 05:20:16;;;;;;;11.30;8.55;;;;;;;5.04;79.89;94183.00;5131233;27;20027;-71
2021/12/28 05:22:41;;;;;;;12.00;7.53;;;;;;;5.07;80.09;94190.50;5112856;27;20027;-71
2021/12/28 05:25:07;;;;;;;16.73;10.50;;;;;;;5.08;79.72;94179.31;5131927;27;20061;-71
2021/12/28 05:27:33;;;;;;;14.43;9.65;;;;;;;5.18;80.88;94182.03;5109146;28;20084;-72
2021/12/28 05:29:58;;;;;;;13.38;9.00;;;;;;;5.24;80.74;94195.31;5094549;28;20047;-71
2021/12/28 05:32:24;;;;;;;12.52;8.00;;;;;;;5.22;79.92;94186.84;5112972;28;20034;-72
2021/12/28 05:34:49;;;;;;;11.30;7.85;;;;;;;5.27;80.59;94176.25;5094326;28;20489;-71
2021/12/28 05:37:14;;;;;;;12.43;8.23;;;;;;;5.25;80.67;94184.06;5130429;27;20031;-71
2021/12/28 05:39:41;;;;;;;19.80;13.10;;;;;;;5.26;80.90;94190.03;5125410;27;20044;-71
2021/12/28 05:42:07;;;;;;;15.02;9.00;;;;;;;5.24;80.74;94189.34;5125211;27;20042;-71
2021/12/28 05:44:32;;;;;;;10.02;7.60;;;;;;;5.20;80.81;94185.31;5109358;27;20031;-71
2021/12/28 05:46:58;;;;;;;16.23;9.85;;;;;;;5.21;80.89;94185.22;5112388;27;20114;-72
2021/12/28 05:49:23;;;;;;;16.20;11.95;;;;;;;5.25;81.30;94186.63;5132458;27;20035;-71
2021/12/28 05:51:49;;;;;;;15.38;10.43;;;;;;;5.33;81.51;94189.47;5125329;27;20110;-71
2021/12/28 05:54:14;;;;;;;20.92;13.32;;;;;;;5.36;81.72;94189.25;5132457;27;20023;-71
2021/12/28 05:56:41;;;;;;;17.65;12.82;;;;;;;5.40;81.96;94196.75;5117292;27;20027;-71
2021/12/28 05:59:07;;;;;;;20.42;15.02;;;;;;;5.24;81.20;94200.47;5076800;28;20081;-71
2021/12/28 06:01:32;;;;;;;26.88;20.27;;;;;;;5.40;81.21;94207.06;5115315;27;20023;-71
2021/12/28 06:03:57;;;;;;;23.73;18.15;;;;;;;5.46;81.16;94196.31;5115591;27;20200;-70
2021/12/28 06:06:23;;;;;;;30.02;22.45;;;;;;;5.53;81.35;94200.91;5125247;27;20024;-71
2021/12/28 06:08:50;;;;;;;9.30;7.43;;;;;;;5.51;81.55;94183.91;5116959;27;20319;-71
2021/12/28 06:11:16;;;;;;;21.73;13.02;;;;;;;5.62;82.13;94185.72;5113629;27;20027;-70
2021/12/28 06:13:42;;;;;;;19.55;14.80;;;;;;;5.69;82.44;94190.31;5096567;27;20034;-71
2021/12/28 06:16:08;;;;;;;16.88;12.93;;;;;;;5.72;82.25;94190.09;5111670;27;20027;-71
2021/12/28 06:18:34;;;;;;;18.98;14.25;;;;;;;5.33;81.65;94198.97;5123450;27;20172;-71
2021/12/28 06:20:59;;;;;;;25.45;20.10;;;;;;;5.21;82.50;94198.09;5116027;27;20031;-72
2021/12/28 06:23:25;;;;;;;22.27;18.95;;;;;;;5.35;81.99;94202.25;5130264;27;20042;-71
2021/12/28 06:25:50;;;;;;;21.27;17.60;;;;;;;5.43;82.01;94201.69;5107567;28;20016;-72
2021/12/28 06:28:15;;;;;;;17.88;13.57;;;;;;;5.43;81.25;94202.50;5093948;28;20043;-71
2021/12/28 06:30:41;;;;;;;21.55;16.25;;;;;;;5.36;81.00;94202.13;5107172;27;20062;-71
2021/12/28 06:33:06;;;;;;;41.78;29.90;;;;;;;4.90;83.11;94192.56;5095158;28;20039;-72
2021/12/28 06:35:32;;;;;;;42.35;27.75;;;;;;;4.99;83.42;94187.69;5099656;27;20023;-72
2021/12/28 06:37:58;;;;;;;39.15;26.80;;;;;;;5.19;82.57;94197.38;5129372;27;20043;-71
2021/12/28 06:40:23;;;;;;;61.65;35.67;;;;;;;5.26;82.58;94188.28;5090994;28;20024;-73
2021/12/28 06:42:48;;;;;;;47.92;29.92;;;;;;;5.26;81.64;94192.59;5108903;28;20034;-72
2021/12/28 06:45:14;;;;;;;75.20;45.47;;;;;;;5.37;81.66;94198.63;5089088;28;20031;-73
2021/12/28 06:47:39;;;;;;;69.93;44.08;;;;;;;5.51;81.15;94212.25;5099050;28;20412;-72
2021/12/28 06:50:05;;;;;;;68.85;42.63;;;;;;;5.61;80.62;94218.41;5076229;28;20088;-73
2021/12/28 06:52:31;;;;;;;66.07;43.53;;;;;;;5.66;80.49;94210.34;5115610;28;20141;-72
2021/12/28 06:54:56;;;;;;;81.07;54.95;;;;;;;5.69;79.75;94213.50;5110807;28;20080;-73
2021/12/28 06:57:22;;;;;;;74.07;51.05;;;;;;;5.56;79.64;94220.50;5118548;28;20020;-73
2021/12/28 06:59:47;;;;;;;100.07;64.40;;;;;;;5.62;79.54;94217.47;5104318;28;20028;-73
2021/12/28 07:02:14;;;;;;;95.55;61.83;;;;;;;5.66;79.45;94215.50;5078176;28;20032;-74
2021/12/28 07:04:40;;;;;;;92.35;57.42;;;;;;;5.72;79.13;94223.59;5100661;28;20051;-73
2021/12/28 07:07:05;;;;;;;91.68;59.25;;;;;;;5.76;78.57;94237.06;5099059;28;20212;-72
2021/12/28 07:09:31;;;;;;;85.63;57.72;;;;;;;5.72;78.56;94227.94;5104892;28;20043;-73
2021/12/28 07:11:57;;;;;;;112.50;71.07;;;;;;;5.70;78.58;94246.06;5110127;28;20032;-73
2021/12/28 07:14:22;;;;;;;104.03;64.82;;;;;;;5.65;78.89;94227.53;5112145;28;20027;-75
2021/12/28 07:16:47;;;;;;;85.97;56.53;;;;;;;5.81;79.07;94243.53;5092064;28;20038;-73
2021/12/28 07:19:13;;;;;;;79.50;50.17;;;;;;;5.74;79.36;94237.19;5126170;28;20411;-73
2021/12/28 07:21:39;;;;;;;75.85;48.53;;;;;;;5.80;79.55;94239.31;5129311;27;20028;-73
2021/12/28 07:24:05;;;;;;;44.20;31.25;;;;;;;5.78;79.99;94246.34;5104377;28;20122;-75
2021/12/28 07:26:31;;;;;;;38.92;28.55;;;;;;;5.75;80.34;94250.91;5110629;28;20107;-75
2021/12/28 07:28:56;;;;;;;43.22;29.42;;;;;;;5.70;80.61;94256.38;5107597;28;20141;-73
2021/12/28 07:31:22;;;;;;;38.63;26.60;;;;;;;5.64;80.91;94228.47;5118802;27;20048;-71
2021/12/28 07:33:47;;;;;;;37.13;26.48;;;;;;;5.87;80.79;94252.56;5121643;27;20057;-72
2021/12/28 07:36:13;;;;;;;30.02;22.40;;;;;;;5.89;80.41;94244.75;5112828;27;20024;-72
2021/12/28 07:38:38;;;;;;;23.00;17.95;;;;;;;5.99;80.50;94262.03;5125791;28;20227;-73
2021/12/28 07:41:04;;;;;;;25.60;16.88;;;;;;;6.08;80.11;94255.38;5109197;28;20493;-73
2021/12/28 07:43:29;;;;;;;22.95;17.17;;;;;;;6.13;80.04;94253.28;5091529;28;20485;-73
2021/12/28 07:45:55;;;;;;;20.40;14.38;;;;;;;6.13;80.51;94248.13;5109976;28;20076;-73
2021/12/28 07:48:20;;;;;;;18.25;14.85;;;;;;;6.28;80.55;94253.88;5114464;28;20032;-73
2021/12/28 07:50:46;;;;;;;19.85;14.02;;;;;;;6.39;80.08;94242.78;5096179;28;20034;-73
2021/12/28 07:53:11;;;;;;;21.20;15.50;;;;;;;6.62;79.56;94254.75;5096080;28;20036;-73
2021/12/28 07:55:36;;;;;;;23.08;17.13;;;;;;;6.74;79.87;94244.41;5114389;28;20501;-73
2021/12/28 07:58:02;;;;;;;22.27;16.83;;;;;;;6.90;79.82;94250.88;5112945;28;20031;-73
2021/12/28 08:00:28;;;;;;;22.35;15.82;;;;;;;6.96;79.91;94238.41;5113047;28;20493;-73
2021/12/28 08:02:54;;;;;;;22.48;16.10;;;;;;;6.99;79.90;94246.75;5114052;28;20092;-73
2021/12/28 08:05:19;;;;;;;26.45;17.65;;;;;;;6.99;80.43;94243.34;5112828;28;20106;-73
2021/12/28 08:07:45;;;;;;;28.17;18.35;;;;;;;7.13;79.95;94240.50;5112737;28;20038;-73
2021/12/28 08:10:11;;;;;;;21.70;16.90;;;;;;;7.22;79.44;94237.22;5095696;28;20450;-73
2021/12/28 08:12:37;;;;;;;21.70;17.90;;;;;;;7.24;79.53;94234.50;5095829;28;20469;-73
2021/12/28 08:15:03;;;;;;;27.58;19.48;;;;;;;7.43;79.26;94233.88;5113828;28;20028;-73
2021/12/28 08:17:29;;;;;;;24.10;18.60;;;;;;;7.48;79.42;94237.72;5078788;28;20061;-73
2021/12/28 08:19:55;;;;;;;21.67;17.48;;;;;;;7.59;79.01;94222.19;5095799;28;20028;-73
2021/12/28 08:22:20;;;;;;;15.98;13.30;;;;;;;7.77;79.03;94231.97;5113849;28;20585;-74
2021/12/28 08:24:45;;;;;;;11.32;9.00;;;;;;;7.83;77.52;94221.16;5112742;28;20084;-73
2021/12/28 08:27:11;;;;;;;11.18;9.07;;;;;;;7.98;76.62;94225.06;5112386;28;20382;-73
2021/12/28 08:29:36;;;;;;;12.43;9.57;;;;;;;8.04;77.01;94229.72;5113581;28;20052;-73
2021/12/28 08:32:02;;;;;;;11.55;9.52;;;;;;;8.11;77.20;94234.38;5112374;28;20030;-73
2021/12/28 08:34:28;;;;;;;13.98;10.23;;;;;;;8.23;77.61;94236.00;5095241;28;20038;-73
2021/12/28 08:36:53;;;;;;;12.40;8.88;;;;;;;8.39;76.52;94236.38;5113527;28;20428;-73
2021/12/28 08:39:18;;;;;;;12.25;9.55;;;;;;;8.47;75.45;94228.81;5112347;28;20521;-73
2021/12/28 08:41:44;;;;;;;12.45;7.45;;;;;;;8.59;73.93;94228.72;5112251;28;20027;-73
2021/12/28 08:44:09;;;;;;;10.23;7.20;;;;;;;8.68;72.62;94223.56;5112194;28;20451;-73
2021/12/28 08:46:35;;;;;;;9.75;7.30;;;;;;;8.81;71.23;94225.97;5095064;28;20413;-73
2021/12/28 08:49:01;;;;;;;10.48;8.00;;;;;;;8.92;72.74;94219.88;5113164;28;20043;-73
2021/12/28 08:51:26;;;;;;;11.05;8.40;;;;;;;9.04;73.38;94223.97;5078173;28;20405;-73
2021/12/28 08:53:52;;;;;;;10.98;7.53;;;;;;;9.03;72.42;94229.31;5111963;28;20038;-73
2021/12/28 08:56:17;;;;;;;9.88;6.97;;;;;;;9.12;73.50;94218.97;5095010;28;20022;-73
2021/12/28 08:58:43;;;;;;;8.30;5.93;;;;;;;9.10;68.92;94215.69;5111370;28;20028;-73
2021/12/28 09:01:08;;;;;;;8.70;6.28;;;;;;;9.18;68.53;94209.84;5111802;28;20461;-73
2021/12/28 09:03:34;;;;;;;14.98;11.07;;;;;;;9.24;69.52;94208.47;5111694;28;20058;-73
2021/12/28 09:06:00;;;;;;;26.95;20.58;;;;;;;9.05;71.41;94201.47;5094694;28;20155;-73
2021/12/28 09:08:26;;;;;;;24.50;18.40;;;;;;;9.10;72.37;94201.91;5111595;28;20531;-73
2021/12/28 09:10:51;;;;;;;27.42;20.65;;;;;;;9.25;70.96;94200.59;5111633;28;20028;-74
2021/12/28 09:13:18;;;;;;;29.88;22.85;;;;;;;9.36;70.68;94203.06;5112903;28;20035;-73
2021/12/28 09:15:43;;;;;;;29.13;23.70;;;;;;;9.38;70.73;94206.31;5112742;28;20030;-73
2021/12/28 09:18:09;;;;;;;25.65;19.67;;;;;;;9.27;70.95;94206.44;5112891;28;20047;-73
2021/12/28 09:20:34;;;;;;;25.45;19.02;;;;;;;9.36;71.19;94205.66;5094530;28;20127;-74
2021/12/28 09:23:00;;;;;;;26.48;19.25;;;;;;;9.33;71.89;94212.84;5094415;28;20038;-73
2021/12/28 09:25:25;;;;;;;27.55;19.95;;;;;;;9.32;71.77;94206.84;5111327;28;20493;-73
2021/12/28 09:27:51;;;;;;;25.23;19.10;;;;;;;9.29;71.96;94201.13;5111264;28;20429;-73
2021/12/28 09:30:16;;;;;;;19.20;14.73;;;;;;;9.00;72.32;94207.06;5111134;28;20523;-73
2021/12/28 09:32:42;;;;;;;21.13;16.30;;;;;;;8.61;73.93;94200.91;5111178;28;20023;-72
2021/12/28 09:35:08;;;;;;;21.23;15.70;;;;;;;8.66;74.21;94201.34;5111403;27;20455;-73
2021/12/28 09:37:33;;;;;;;21.67;16.98;;;;;;;8.84;74.33;94211.94;5132494;27;20027;-73
2021/12/28 09:39:59;;;;;;;20.92;14.38;;;;;;;8.28;75.27;94205.38;5096833;27;20606;-74
2021/12/28 09:42:24;;;;;;;21.20;15.00;;;;;;;8.21;76.09;94199.06;5132393;27;20029;-72
2021/12/28 09:44:51;;;;;;;19.27;15.15;;;;;;;8.17;77.01;94200.28;5114043;27;20038;-72
2021/12/28 09:47:17;;;;;;;21.52;15.07;;;;;;;8.20;77.21;94193.06;5132175;27;20023;-72
2021/12/28 09:49:43;;;;;;;19.90;15.77;;;;;;;8.28;77.36;94188.06;5114045;27;20035;-73
2021/12/28 09:52:08;;;;;;;17.95;14.43;;;;;;;8.34;76.31;94197.09;5097048;27;20034;-73
2021/12/28 09:54:34;;;;;;;17.48;13.05;;;;;;;8.26;76.58;94192.56;5132495;27;20031;-72
2021/12/28 09:57:00;;;;;;;19.23;13.95;;;;;;;8.34;76.20;94186.75;5131253;27;20027;-72
2021/12/28 09:59:27;;;;;;;19.38;13.23;;;;;;;8.35;75.65;94190.16;5097298;27;20038;-72
2021/12/28 10:01:52;;;;;;;16.55;12.73;;;;;;;8.44;75.90;94194.56;5113968;27;20027;-72
2021/12/28 10:04:18;;;;;;;18.27;12.90;;;;;;;8.63;75.96;94194.66;5114146;27;20401;-72
2021/12/28 10:06:43;;;;;;;13.25;11.07;;;;;;;8.74;74.28;94188.56;5114144;27;20084;-72
2021/12/28 10:09:14;;;;;;;15.10;10.45;;;;;;;8.72;72.92;94182.72;5130555;27;20439;-83
2021/12/28 10:11:48;;;;;;;10.95;9.18;;;;;;;8.53;73.21;94182.66;5097247;27;20046;-76
2021/12/28 10:14:23;;;;;;;13.07;8.13;;;;;;;8.53;72.85;94183.47;5131137;27;20039;-76
2021/12/28 10:16:53;;;;;;;15.10;10.52;;;;;;;8.89;72.60;94176.91;5131001;27;20035;-76
2021/12/28 10:19:29;;;;;;;14.45;10.25;;;;;;;8.88;71.09;94174.44;5130996;27;20443;-76
2021/12/28 10:21:55;;;;;;;9.70;7.40;;;;;;;8.86;71.43;94166.81;5096892;27;20027;-76
2021/12/28 10:24:34;;;;;;;13.93;9.45;;;;;;;9.16;69.94;94175.47;5113859;27;20034;-76
2021/12/28 10:27:13;;;;;;;13.98;9.73;;;;;;;9.08;70.47;94173.56;5130631;27;20039;-76
2021/12/28 10:29:38;;;;;;;13.55;10.57;;;;;;;9.21;71.89;94167.28;5113581;27;20089;-76
2021/12/28 10:32:21;;;;;;;12.80;9.15;;;;;;;9.37;71.30;94183.13;5113655;27;20031;-76
2021/12/28 10:34:47;;;;;;;14.65;12.27;;;;;;;9.57;69.27;94177.00;5130751;27;20042;-76
2021/12/28 10:37:20;;;;;;;25.30;20.90;;;;;;;9.76;68.53;94180.56;5131849;27;20019;-76
2021/12/28 10:39:47;;;;;;;23.08;17.45;;;;;;;9.81;68.80;94155.03;5130815;27;20085;-76
2021/12/28 10:42:44;;;;;;;10.57;8.75;;;;;;;9.97;67.63;94168.25;5130568;28;20023;-76
2021/12/28 10:45:24;;;;;;;11.63;8.48;;;;;;;9.91;68.40;94171.38;5130416;27;20039;-76
2021/12/28 10:47:50;;;;;;;10.75;7.15;;;;;;;9.69;68.29;94176.84;5096486;28;20469;-76
2021/12/28 10:50:29;;;;;;;8.73;7.35;;;;;;;9.57;68.95;94165.81;5130463;28;20035;-76
2021/12/28 10:53:10;;;;;;;10.30;7.30;;;;;;;9.42;69.23;94175.78;5130610;28;20401;-77
2021/12/28 10:55:36;;;;;;;10.45;7.07;;;;;;;9.45;69.11;94159.13;5114270;28;20149;-76
2021/12/28 10:58:03;;;;;;;8.90;7.45;;;;;;;9.38;69.29;94164.84;5113387;28;20067;-76
2021/12/28 11:00:37;;;;;;;11.65;8.32;;;;;;;9.34;70.21;94163.47;5130474;28;20073;-76
2021/12/28 11:03:12;;;;;;;10.65;7.53;;;;;;;9.44;69.50;94157.47;5113412;28;20050;-76
2021/12/28 11:05:37;;;;;;;14.05;10.55;;;;;;;9.43;69.03;94167.03;5130344;27;20019;-76
2021/12/28 11:08:04;;;;;;;8.88;7.03;;;;;;;9.12;70.46;94161.16;5096011;28;20058;-76
2021/12/28 11:10:29;;;;;;;9.68;7.65;;;;;;;8.97;70.92;94152.94;5113425;28;20031;-76
2021/12/28 11:12:55;;;;;;;10.63;7.95;;;;;;;9.17;70.72;94156.38;5113081;28;20042;-77
2021/12/28 11:15:23;;;;;;;9.02;6.68;;;;;;;9.03;70.12;94151.59;5131747;27;20559;-76
2021/12/28 11:17:49;;;;;;;8.68;6.40;;;;;;;8.95;69.78;94153.06;5131554;27;20027;-77
2021/12/28 11:20:14;;;;;;;11.23;6.60;;;;;;;9.10;70.12;94145.72;5131429;27;20030;-76
2021/12/28 11:22:40;;;;;;;10.50;7.72;;;;;;;8.90;70.34;94152.63;5135022;27;20035;-76
2021/12/28 11:25:23;;;;;;;10.77;8.27;;;;;;;8.92;70.62;94134.38;5100038;27;20034;-76
2021/12/28 11:27:49;;;;;;;12.00;9.88;;;;;;;9.21;70.13;94152.56;5134180;27;20110;-74
2021/12/28 11:30:15;;;;;;;14.13;10.35;;;;;;;9.31;69.95;94142.22;5116694;27;20050;-77